Time;durP1;ratioP1;P1;durP2;ratioP2;P2;SDS_P1;SDS_P2;PMS_P1;PMS_P2;Temp;Humidity;BMP_temperature;BMP_pressure;BME280_temperature;BME280_humidity;BME280_pressure;Samples;Min_cycle;Max_cycle;Signal;HPM_P1;HPM_P2
2022/11/29 00:01:08;;;;;;;;;;;10.20;99.90;;;;;;4956751;28;19927;-61
2022/11/29 00:03:34;;;;;;;;;;;10.10;99.90;;;;;;4960189;28;19996;-61
2022/11/29 00:06:06;;;;;;;;;;;10.00;99.90;;;;;;4964142;28;20680;-61
2022/11/29 00:08:32;;;;;;;;;;;9.80;99.90;;;;;;4965009;28;19921;-62
2022/11/29 00:11:02;;;;;;;;;;;9.80;99.90;;;;;;4952882;28;19918;-62
2022/11/29 00:13:27;;;;;;;;;;;10.00;99.90;;;;;;4961831;28;19921;-61
2022/11/29 00:15:53;;;;;;;;;;;9.90;99.90;;;;;;4963827;28;19914;-61
2022/11/29 00:18:18;;;;;;;;;;;9.90;99.90;;;;;;4962300;28;19910;-62
2022/11/29 00:20:43;;;;;;;;;;;9.80;99.90;;;;;;4960889;28;20007;-62
2022/11/29 00:23:09;;;;;;;;;;;9.70;99.90;;;;;;4960590;28;20301;-62
2022/11/29 00:25:36;;;;;;;;;;;9.80;99.90;;;;;;4963590;28;19948;-62
2022/11/29 00:28:02;;;;;;;;;;;9.60;99.90;;;;;;4966596;28;19933;-62
2022/11/29 00:30:27;;;;;;;;;;;9.60;99.90;;;;;;4959419;28;19910;-62
2022/11/29 00:32:53;;;;;;;;;;;9.60;99.90;;;;;;4956276;28;20365;-62
2022/11/29 00:35:18;;;;;;;;;;;9.60;99.90;;;;;;4967588;28;19917;-62
2022/11/29 00:37:44;;;;;;;;;;;9.50;99.90;;;;;;4955918;28;19918;-61
2022/11/29 00:40:09;;;;;;;;;;;9.60;99.90;;;;;;4954379;28;20421;-61
2022/11/29 00:42:35;;;;;;;;;;;9.60;99.90;;;;;;4966134;28;19921;-61
2022/11/29 00:45:00;;;;;;;;;;;9.30;99.90;;;;;;4958151;28;19914;-61
2022/11/29 00:47:26;;;;;;;;;;;9.30;99.90;;;;;;4960620;28;19919;-62
2022/11/29 00:49:51;;;;;;;;;;;9.30;99.90;;;;;;4962528;28;19925;-62
2022/11/29 00:52:17;;;;;;;;;;;9.30;99.90;;;;;;4962171;28;19914;-61
2022/11/29 00:54:42;;;;;;;;;;;9.20;99.90;;;;;;4962328;28;19975;-61
2022/11/29 00:57:08;;;;;;;;;;;9.20;99.90;;;;;;4961883;28;19922;-61
2022/11/29 00:59:33;;;;;;;;;;;9.30;99.90;;;;;;4963374;28;19937;-61
2022/11/29 01:01:59;;;;;;;;;;;9.20;99.90;;;;;;4960940;28;20149;-61
2022/11/29 01:04:24;;;;;;;;;;;9.30;99.90;;;;;;4961276;28;19956;-61
2022/11/29 01:06:50;;;;;;;;;;;9.20;99.90;;;;;;4956190;28;19950;-61
2022/11/29 01:09:16;;;;;;;;;;;9.20;99.90;;;;;;4955088;28;19962;-61
2022/11/29 01:11:41;;;;;;;;;;;9.40;99.90;;;;;;4971070;28;20350;-61
2022/11/29 01:14:07;;;;;;;;;;;9.40;99.90;;;;;;4958230;28;20298;-61
2022/11/29 01:16:32;;;;;;;;;;;9.30;99.90;;;;;;4964203;28;19929;-61
2022/11/29 01:18:59;;;;;;;;;;;9.20;99.90;;;;;;4959635;28;20363;-61
2022/11/29 01:21:25;;;;;;;;;;;9.20;99.90;;;;;;4954403;28;20251;-61
2022/11/29 01:23:51;;;;;;;;;;;9.20;99.90;;;;;;4953459;28;19925;-61
2022/11/29 01:26:17;;;;;;;;;;;9.20;99.90;;;;;;4951618;28;20374;-61
2022/11/29 01:28:46;;;;;;;;;;;9.30;99.90;;;;;;4957100;28;20412;-61
2022/11/29 01:31:14;;;;;;;;;;;9.30;99.90;;;;;;4967113;28;20421;-61
2022/11/29 01:33:39;;;;;;;;;;;9.50;99.90;;;;;;4967498;28;19919;-61
2022/11/29 01:36:06;;;;;;;;;;;9.40;99.90;;;;;;4960680;28;20780;-61
2022/11/29 01:38:31;;;;;;;;;;;9.50;99.90;;;;;;4958528;28;19911;-61
2022/11/29 01:40:58;;;;;;;;;;;9.50;99.90;;;;;;4962971;28;20309;-61
2022/11/29 01:43:23;;;;;;;;;;;9.40;99.90;;;;;;4961135;28;20313;-61
2022/11/29 01:45:49;;;;;;;;;;;9.40;99.90;;;;;;4964877;28;19941;-61
2022/11/29 01:48:15;;;;;;;;;;;9.40;99.90;;;;;;4966523;28;19979;-61
2022/11/29 01:50:41;;;;;;;;;;;9.40;99.90;;;;;;4956581;28;19945;-61
2022/11/29 01:53:07;;;;;;;;;;;9.30;99.90;;;;;;4962117;28;19946;-61
2022/11/29 01:55:36;;;;;;;;;;;9.30;99.90;;;;;;4964281;28;19914;-61
2022/11/29 01:58:02;;;;;;;;;;;9.40;99.90;;;;;;4960858;28;19921;-61
2022/11/29 02:00:28;;;;;;;;;;;9.30;99.90;;;;;;4962648;28;19926;-61
2022/11/29 02:03:13;;;;;;;;;;;9.10;99.90;;;;;;4954621;28;19910;-61
2022/11/29 02:05:44;;;;;;;;;;;9.10;99.90;;;;;;4959566;28;20288;-61
2022/11/29 02:08:11;;;;;;;;;;;9.10;99.90;;;;;;4963012;28;20005;-61
2022/11/29 02:10:41;;;;;;;;;;;9.20;99.90;;;;;;4965858;28;19914;-61
2022/11/29 02:13:12;;;;;;;;;;;9.20;99.90;;;;;;4965857;28;20358;-61
2022/11/29 02:15:38;;;;;;;;;;;9.10;99.90;;;;;;4958744;28;19977;-61
2022/11/29 02:18:18;;;;;;;;;;;9.10;99.90;;;;;;4967224;28;20534;-61
2022/11/29 02:21:02;;;;;;;;;;;9.10;99.90;;;;;;4963290;28;20281;-61
2022/11/29 02:23:39;;;;;;;;;;;9.10;99.90;;;;;;4967002;28;19922;-61
2022/11/29 02:26:20;;;;;;;;;;;9.10;99.90;;;;;;4964565;28;20015;-61
2022/11/29 02:28:48;;;;;;;;;;;9.10;99.90;;;;;;4957949;28;20441;-61
2022/11/29 02:31:40;;;;;;;;;;;9.00;99.90;;;;;;4962754;28;19929;-61
2022/11/29 02:34:06;;;;;;;;;;;9.10;99.90;;;;;;4967508;28;19934;-61
2022/11/29 02:36:31;;;;;;;;;;;9.20;99.90;;;;;;4961711;28;20012;-61
2022/11/29 02:39:13;;;;;;;;;;;9.20;99.90;;;;;;4964010;28;19929;-61
2022/11/29 02:41:57;;;;;;;;;;;9.20;99.90;;;;;;4966672;28;19921;-61
2022/11/29 02:44:41;;;;;;;;;;;9.20;99.90;;;;;;4958253;28;19925;-61
2022/11/29 02:47:12;;;;;;;;;;;9.00;99.90;;;;;;4963812;28;19917;-61
2022/11/29 02:49:56;;;;;;;;;;;9.00;99.90;;;;;;4963162;28;19922;-61
2022/11/29 02:52:37;;;;;;;;;;;9.00;99.90;;;;;;4958515;28;19910;-61
2022/11/29 02:55:06;;;;;;;;;;;8.90;99.90;;;;;;4952715;28;19910;-61
2022/11/29 02:57:40;;;;;;;;;;;9.10;99.90;;;;;;4961938;28;19910;-61
2022/11/29 03:00:08;;;;;;;;;;;9.30;99.90;;;;;;4962569;28;19958;-61
2022/11/29 03:02:47;;;;;;;;;;;9.10;99.90;;;;;;4963943;28;20381;-61
2022/11/29 03:05:18;;;;;;;;;;;9.00;99.90;;;;;;4963420;28;19914;-61
2022/11/29 03:07:47;;;;;;;;;;;8.90;99.90;;;;;;4966069;28;21016;-61
2022/11/29 03:10:21;;;;;;;;;;;9.10;99.90;;;;;;4958308;28;19973;-61
2022/11/29 03:12:48;;;;;;;;;;;9.00;99.90;;;;;;4956590;28;19917;-60
2022/11/29 03:15:19;;;;;;;;;;;8.90;99.90;;;;;;4956131;28;20718;-61
2022/11/29 03:18:01;;;;;;;;;;;8.90;99.90;;;;;;4961375;28;19922;-61
2022/11/29 03:20:36;;;;;;;;;;;9.10;99.90;;;;;;4973428;28;19945;-61
2022/11/29 03:23:20;;;;;;;;;;;9.30;99.90;;;;;;4962591;28;19910;-61
2022/11/29 03:25:46;;;;;;;;;;;9.30;99.90;;;;;;4962899;28;19918;-61
2022/11/29 03:28:19;;;;;;;;;;;9.10;99.90;;;;;;4960197;28;20293;-61
2022/11/29 03:30:49;;;;;;;;;;;9.00;99.90;;;;;;4966712;28;20401;-61
2022/11/29 03:33:32;;;;;;;;;;;9.10;99.90;;;;;;4965133;28;19914;-61
2022/11/29 03:36:03;;;;;;;;;;;9.20;99.90;;;;;;4966958;28;19968;-61
2022/11/29 03:38:37;;;;;;;;;;;9.10;99.90;;;;;;4967393;28;20002;-61
2022/11/29 03:41:09;;;;;;;;;;;9.10;99.90;;;;;;4960319;28;20545;-61
2022/11/29 03:43:39;;;;;;;;;;;9.20;99.90;;;;;;4971175;28;20358;-61
2022/11/29 03:46:09;;;;;;;;;;;9.00;99.90;;;;;;4963353;28;20380;-61
2022/11/29 03:48:49;;;;;;;;;;;9.10;99.90;;;;;;4960206;28;19922;-61
2022/11/29 03:51:20;;;;;;;;;;;9.20;99.90;;;;;;4961634;28;19915;-61
2022/11/29 03:53:58;;;;;;;;;;;9.10;99.90;;;;;;4959512;28;20354;-61
2022/11/29 03:56:31;;;;;;;;;;;9.00;99.90;;;;;;4955188;28;20013;-61
2022/11/29 03:59:03;;;;;;;;;;;8.90;99.90;;;;;;4964313;28;20378;-61
2022/11/29 04:01:44;;;;;;;;;;;9.00;99.90;;;;;;4956192;28;20617;-61
2022/11/29 04:04:09;;;;;;;;;;;8.90;99.90;;;;;;4959038;28;20275;-61
2022/11/29 04:06:53;;;;;;;;;;;8.90;99.90;;;;;;4958836;28;19934;-61
2022/11/29 04:09:28;;;;;;;;;;;8.80;99.90;;;;;;4964037;28;19932;-61
2022/11/29 04:12:23;;;;;;;;;;;8.90;99.90;;;;;;4955314;28;19918;-61
2022/11/29 04:15:08;;;;;;;;;;;8.90;99.90;;;;;;4954745;28;19922;-61
2022/11/29 04:17:51;;;;;;;;;;;9.00;99.90;;;;;;4981739;28;19921;-61
2022/11/29 04:20:29;;;;;;;;;;;8.90;99.90;;;;;;4958000;28;20395;-61
2022/11/29 04:23:13;;;;;;;;;;;9.00;99.90;;;;;;4980746;28;19953;-61
2022/11/29 04:25:51;;;;;;;;;;;9.10;99.90;;;;;;4966521;28;19965;-61
2022/11/29 04:28:35;;;;;;;;;;;9.00;99.90;;;;;;4968129;28;19925;-61
2022/11/29 04:31:06;;;;;;;;;;;9.00;99.90;;;;;;4968197;28;19914;-61
2022/11/29 04:33:50;;;;;;;;;;;9.00;99.90;;;;;;4963121;28;19937;-61
2022/11/29 04:36:18;;;;;;;;;;;9.00;99.90;;;;;;4959029;28;20400;-61
2022/11/29 04:38:56;;;;;;;;;;;8.80;99.90;;;;;;4960340;28;19910;-61
2022/11/29 04:41:21;;;;;;;;;;;8.90;99.90;;;;;;4963140;28;20377;-61
2022/11/29 04:44:10;;;;;;;;;;;8.90;99.90;;;;;;4961555;28;20010;-61
2022/11/29 04:46:35;;;;;;;;;;;8.80;99.90;;;;;;4975250;28;19945;-61
2022/11/29 04:49:13;;;;;;;;;;;8.80;99.90;;;;;;4963688;28;19972;-61
2022/11/29 04:51:48;;;;;;;;;;;8.70;99.90;;;;;;4962075;28;19914;-61
2022/11/29 04:54:27;;;;;;;;;;;8.60;99.90;;;;;;4962771;28;20710;-62
2022/11/29 04:57:07;;;;;;;;;;;8.60;99.90;;;;;;4967477;28;19910;-61
2022/11/29 04:59:33;;;;;;;;;;;8.50;99.90;;;;;;4956949;28;19973;-61
2022/11/29 05:02:05;;;;;;;;;;;8.50;99.90;;;;;;4960146;28;20374;-61
2022/11/29 05:04:39;;;;;;;;;;;8.50;99.90;;;;;;4957014;28;20021;-61
2022/11/29 05:07:07;;;;;;;;;;;8.50;99.90;;;;;;4958197;28;20230;-61
2022/11/29 05:09:51;;;;;;;;;;;8.40;99.90;;;;;;4957144;28;20358;-62
2022/11/29 05:12:28;;;;;;;;;;;8.50;99.90;;;;;;4958417;28;19918;-61
2022/11/29 05:15:00;;;;;;;;;;;8.40;99.90;;;;;;4963153;28;19957;-61
2022/11/29 05:17:26;;;;;;;;;;;8.50;99.90;;;;;;4953842;28;20433;-62
2022/11/29 05:19:51;;;;;;;;;;;8.50;99.90;;;;;;4956993;28;19946;-61
2022/11/29 05:22:27;;;;;;;;;;;8.40;99.90;;;;;;4955702;28;19914;-61
2022/11/29 05:25:12;;;;;;;;;;;8.30;99.90;;;;;;4955246;28;19916;-61
2022/11/29 05:27:55;;;;;;;;;;;8.30;99.90;;;;;;4948412;28;19919;-61
2022/11/29 05:30:22;;;;;;;;;;;8.20;99.90;;;;;;4955326;28;19977;-61
2022/11/29 05:32:56;;;;;;;;;;;8.30;99.90;;;;;;4965274;28;19921;-61
2022/11/29 05:35:28;;;;;;;;;;;8.30;99.90;;;;;;4961826;28;19938;-61
2022/11/29 05:38:16;;;;;;;;;;;8.30;99.90;;;;;;4954479;28;20359;-61
2022/11/29 05:41:05;;;;;;;;;;;8.40;99.90;;;;;;4952181;28;19923;-61
2022/11/29 05:43:30;;;;;;;;;;;8.40;99.90;;;;;;4959207;28;19965;-61
2022/11/29 05:46:06;;;;;;;;;;;8.50;99.90;;;;;;4963159;28;19911;-61
2022/11/29 05:48:34;;;;;;;;;;;8.60;99.90;;;;;;4960301;28;20365;-61
2022/11/29 05:51:23;;;;;;;;;;;8.50;99.90;;;;;;4959879;28;19957;-61
2022/11/29 05:54:02;;;;;;;;;;;8.40;99.90;;;;;;4962173;28;19918;-61
2022/11/29 05:56:28;;;;;;;;;;;8.50;99.90;;;;;;4952644;28;19929;-61
2022/11/29 05:59:07;;;;;;;;;;;8.40;99.90;;;;;;4962649;28;19918;-62
2022/11/29 06:01:32;;;;;;;;;;;8.40;99.90;;;;;;4979980;28;19929;-61
2022/11/29 06:04:03;;;;;;;;;;;8.30;99.90;;;;;;4967627;28;19911;-61
2022/11/29 06:06:40;;;;;;;;;;;8.30;99.90;;;;;;4989072;28;19910;-61
2022/11/29 06:09:25;;;;;;;;;;;8.30;99.90;;;;;;4962386;28;19914;-61
2022/11/29 06:11:56;;;;;;;;;;;8.40;99.90;;;;;;4962609;28;19918;-61
2022/11/29 06:14:44;;;;;;;;;;;8.40;99.90;;;;;;4962387;28;20385;-61
2022/11/29 06:17:45;;;;;;;;;;;8.40;99.90;;;;;;4958548;28;19914;-61
2022/11/29 06:20:18;;;;;;;;;;;8.40;99.90;;;;;;4940562;28;20004;-61
2022/11/29 06:23:02;;;;;;;;;;;8.50;99.90;;;;;;4957930;28;19957;-61
2022/11/29 06:26:03;;;;;;;;;;;8.40;99.90;;;;;;4965029;28;20369;-62
2022/11/29 06:28:37;;;;;;;;;;;8.40;99.90;;;;;;4931705;28;20446;-61
2022/11/29 06:31:15;;;;;;;;;;;8.20;99.90;;;;;;4959114;28;20598;-61
2022/11/29 06:33:52;;;;;;;;;;;8.00;99.90;;;;;;4968550;28;19980;-61
2022/11/29 06:36:24;;;;;;;;;;;8.10;99.90;;;;;;4966165;28;20020;-61
2022/11/29 06:38:49;;;;;;;;;;;8.10;99.90;;;;;;4968223;28;19918;-61
2022/11/29 06:41:18;;;;;;;;;;;8.40;99.90;;;;;;4966073;28;20267;-61
2022/11/29 06:43:43;;;;;;;;;;;8.40;99.90;;;;;;4962995;28;20457;-61
2022/11/29 06:46:16;;;;;;;;;;;8.50;99.90;;;;;;4963313;28;20008;-61
2022/11/29 06:48:46;;;;;;;;;;;8.60;99.90;;;;;;4955434;28;19918;-61
2022/11/29 06:51:16;;;;;;;;;;;8.60;99.90;;;;;;4968278;28;20282;-61
2022/11/29 06:53:51;;;;;;;;;;;8.30;99.90;;;;;;4964359;28;19914;-61
2022/11/29 06:56:25;;;;;;;;;;;8.30;99.90;;;;;;4966498;28;19933;-61
2022/11/29 06:59:00;;;;;;;;;;;8.20;99.90;;;;;;4968215;28;19910;-61
2022/11/29 07:01:39;;;;;;;;;;;8.40;99.90;;;;;;4964338;28;19953;-62
2022/11/29 07:04:11;;;;;;;;;;;8.50;99.90;;;;;;4963120;28;19921;-62
2022/11/29 07:06:37;;;;;;;;;;;8.50;99.90;;;;;;4964967;28;20263;-62
2022/11/29 07:09:10;;;;;;;;;;;8.50;99.90;;;;;;4959519;28;20049;-62
2022/11/29 07:11:36;;;;;;;;;;;8.40;99.90;;;;;;4957236;28;19938;-61
2022/11/29 07:14:01;;;;;;;;;;;8.20;99.90;;;;;;4953181;28;20339;-61
2022/11/29 07:16:32;;;;;;;;;;;8.40;99.90;;;;;;4956734;28;19918;-63
2022/11/29 07:19:08;;;;;;;;;;;8.10;99.90;;;;;;4955861;28;19997;-63
2022/11/29 07:21:36;;;;;;;;;;;8.20;99.90;;;;;;4957633;28;19921;-63
2022/11/29 07:24:05;;;;;;;;;;;8.30;99.90;;;;;;4957354;28;19914;-63
2022/11/29 07:26:40;;;;;;;;;;;8.40;99.90;;;;;;4952862;28;19961;-63
2022/11/29 07:29:18;;;;;;;;;;;8.40;99.90;;;;;;4970485;28;19922;-63
2022/11/29 07:31:59;;;;;;;;;;;8.60;99.90;;;;;;4962566;28;19921;-63
2022/11/29 07:34:43;;;;;;;;;;;8.60;99.90;;;;;;4967935;28;19941;-63
2022/11/29 07:37:14;;;;;;;;;;;8.40;99.90;;;;;;4964441;28;20354;-63
2022/11/29 07:39:47;;;;;;;;;;;8.40;99.90;;;;;;4964148;28;19929;-63
2022/11/29 07:42:21;;;;;;;;;;;8.40;99.90;;;;;;4961860;28;19918;-63
2022/11/29 07:44:53;;;;;;;;;;;8.40;99.90;;;;;;4963029;28;20049;-63
2022/11/29 07:47:18;;;;;;;;;;;8.50;99.90;;;;;;4961025;28;19980;-63
2022/11/29 07:49:44;;;;;;;;;;;8.50;99.90;;;;;;4965774;28;19914;-63
2022/11/29 07:52:13;;;;;;;;;;;8.50;99.90;;;;;;4970196;28;20278;-63
2022/11/29 07:54:39;;;;;;;;;;;8.60;99.90;;;;;;4971136;28;20354;-63
2022/11/29 07:57:04;;;;;;;;;;;8.70;99.90;;;;;;4966155;28;19917;-63
2022/11/29 07:59:29;;;;;;;;;;;8.70;99.90;;;;;;4963686;28;19914;-63
2022/11/29 08:01:55;;;;;;;;;;;8.90;99.90;;;;;;4959197;28;19977;-63
2022/11/29 08:04:20;;;;;;;;;;;9.10;99.90;;;;;;4960248;28;20350;-63
2022/11/29 08:06:46;;;;;;;;;;;9.00;99.90;;;;;;4965741;28;19924;-63
2022/11/29 08:09:11;;;;;;;;;;;9.20;99.90;;;;;;4967094;28;20330;-63
2022/11/29 08:11:38;;;;;;;;;;;9.10;99.90;;;;;;4964457;28;20187;-63
2022/11/29 08:14:04;;;;;;;;;;;9.10;99.90;;;;;;4965539;28;19910;-63
2022/11/29 08:16:29;;;;;;;;;;;9.00;99.90;;;;;;4963958;28;20374;-63
2022/11/29 08:18:55;;;;;;;;;;;9.20;99.90;;;;;;4966947;28;19945;-63
2022/11/29 08:21:20;;;;;;;;;;;9.10;99.90;;;;;;4976761;28;22147;-64
2022/11/29 08:23:47;;;;;;;;;;;9.10;99.90;;;;;;4965250;28;20329;-64
2022/11/29 08:26:13;;;;;;;;;;;8.90;99.90;;;;;;4966282;28;19910;-64
2022/11/29 08:28:39;;;;;;;;;;;8.80;99.90;;;;;;4967612;28;19931;-63
2022/11/29 08:31:06;;;;;;;;;;;8.80;99.90;;;;;;4963164;28;19947;-63
2022/11/29 08:33:33;;;;;;;;;;;8.80;99.90;;;;;;4960848;28;19933;-64
2022/11/29 08:36:28;;;;;;;;;;;8.80;99.90;;;;;;4965690;28;19932;-63
2022/11/29 08:38:55;;;;;;;;;;;8.80;99.90;;;;;;4953607;28;19922;-63
2022/11/29 08:41:20;;;;;;;;;;;8.80;99.90;;;;;;4977698;28;19993;-63
2022/11/29 08:43:46;;;;;;;;;;;8.70;99.90;;;;;;4964439;28;19996;-63
2022/11/29 08:46:11;;;;;;;;;;;8.80;99.90;;;;;;4964446;28;19921;-63
2022/11/29 08:48:37;;;;;;;;;;;8.80;99.90;;;;;;4962068;28;19910;-63
2022/11/29 08:51:03;;;;;;;;;;;8.80;99.90;;;;;;4965357;28;19910;-63
2022/11/29 08:53:40;;;;;;;;;;;8.80;99.90;;;;;;4965100;28;19910;-63
2022/11/29 08:56:07;;;;;;;;;;;8.70;99.90;;;;;;4963913;28;20095;-62
2022/11/29 08:58:33;;;;;;;;;;;8.70;99.90;;;;;;4963761;28;20313;-63
2022/11/29 09:00:58;;;;;;;;;;;8.70;99.90;;;;;;4958870;28;19922;-63
2022/11/29 09:06:10;;;;;;;;;;;8.60;99.90;;;;;;4962470;28;20481;-62
2022/11/29 09:08:35;;;;;;;;;;;8.50;99.90;;;;;;4963502;28;20000;-62
2022/11/29 09:11:07;;;;;;;;;;;8.60;99.90;;;;;;4964111;28;19997;-62
2022/11/29 09:13:33;;;;;;;;;;;8.60;99.90;;;;;;4966082;28;19914;-62
2022/11/29 09:15:58;;;;;;;;;;;8.70;99.90;;;;;;4961967;28;19914;-62
2022/11/29 09:18:27;;;;;;;;;;;8.70;99.90;;;;;;4959406;28;19914;-62
2022/11/29 09:20:52;;;;;;;;;;;8.80;99.90;;;;;;4963025;28;20361;-62
2022/11/29 09:23:18;;;;;;;;;;;8.80;99.90;;;;;;4965982;28;19921;-62
2022/11/29 09:25:47;;;;;;;;;;;8.80;99.90;;;;;;4970267;28;20001;-62
2022/11/29 09:28:12;;;;;;;;;;;8.80;99.90;;;;;;4960573;28;19918;-63
2022/11/29 09:30:38;;;;;;;;;;;8.90;99.90;;;;;;4962179;28;19938;-63
2022/11/29 09:33:03;;;;;;;;;;;9.00;99.90;;;;;;4963060;28;19910;-63
2022/11/29 09:35:29;;;;;;;;;;;8.90;99.90;;;;;;4971668;28;19976;-63
2022/11/29 09:37:55;;;;;;;;;;;8.90;99.90;;;;;;4971173;28;19910;-63
2022/11/29 09:40:24;;;;;;;;;;;8.80;99.90;;;;;;4966151;28;20224;-63
2022/11/29 09:42:56;;;;;;;;;;;8.80;99.90;;;;;;4965112;28;19922;-63
2022/11/29 09:45:30;;;;;;;;;;;8.80;99.90;;;;;;4966930;28;19926;-63
2022/11/29 09:48:11;;;;;;;;;;;8.90;99.90;;;;;;4967002;28;19910;-62
2022/11/29 09:50:42;;;;;;;;;;;9.00;99.90;;;;;;4963497;28;19991;-63
2022/11/29 09:53:30;;;;;;;;;;;9.00;99.90;;;;;;4965649;28;20005;-63
2022/11/29 09:56:08;;;;;;;;;;;9.10;99.90;;;;;;4969867;28;19989;-62
2022/11/29 09:58:42;;;;;;;;;;;9.20;99.90;;;;;;4966721;28;20549;-63
2022/11/29 10:01:10;;;;;;;;;;;9.10;99.90;;;;;;4967506;28;20432;-63
2022/11/29 10:03:41;;;;;;;;;;;9.30;99.90;;;;;;4969284;28;19917;-63
2022/11/29 10:06:12;;;;;;;;;;;9.30;99.90;;;;;;4965254;28;19918;-63
2022/11/29 10:08:40;;;;;;;;;;;9.20;99.90;;;;;;4964560;28;20000;-63
2022/11/29 10:11:38;;;;;;;;;;;9.20;99.90;;;;;;4969425;28;19946;-63
2022/11/29 10:14:13;;;;;;;;;;;9.00;99.90;;;;;;4967187;28;20005;-63
2022/11/29 10:16:54;;;;;;;;;;;8.90;99.90;;;;;;4964568;28;20034;-63
2022/11/29 10:19:22;;;;;;;;;;;9.00;99.90;;;;;;4965390;28;19914;-63
2022/11/29 10:22:02;;;;;;;;;;;9.20;99.90;;;;;;4969915;28;20321;-63
2022/11/29 10:24:28;;;;;;;;;;;9.10;99.90;;;;;;4968195;28;19956;-62
2022/11/29 10:26:53;;;;;;;;;;;9.30;99.90;;;;;;4968890;28;19953;-63
2022/11/29 10:29:20;;;;;;;;;;;9.50;99.90;;;;;;4969363;28;19996;-63
2022/11/29 10:31:48;;;;;;;;;;;9.50;99.90;;;;;;4966866;28;19925;-63
2022/11/29 10:34:21;;;;;;;;;;;9.60;99.90;;;;;;4963251;28;19917;-62
2022/11/29 10:36:48;;;;;;;;;;;9.40;99.90;;;;;;4959910;28;19921;-63
2022/11/29 10:39:35;;;;;;;;;;;9.30;99.90;;;;;;4967995;28;19910;-62
2022/11/29 10:42:02;;;;;;;;;;;9.40;99.90;;;;;;4967688;28;19917;-63
2022/11/29 10:44:30;;;;;;;;;;;9.40;99.90;;;;;;4968648;28;19918;-63
2022/11/29 10:46:56;;;;;;;;;;;9.60;99.90;;;;;;4967119;28;19996;-62
2022/11/29 10:49:24;;;;;;;;;;;9.60;99.90;;;;;;4970382;28;20287;-62
2022/11/29 10:51:49;;;;;;;;;;;9.60;99.90;;;;;;4967488;28;19957;-62
2022/11/29 10:54:30;;;;;;;;;;;9.70;99.90;;;;;;4982503;28;19910;-62
2022/11/29 10:56:57;;;;;;;;;;;9.50;99.90;;;;;;4965177;28;20243;-64
2022/11/29 10:59:24;;;;;;;;;;;9.50;99.90;;;;;;4967406;28;20389;-62
2022/11/29 11:01:50;;;;;;;;;;;9.40;99.90;;;;;;4963531;28;19924;-62
2022/11/29 11:04:27;;;;;;;;;;;9.30;99.90;;;;;;4963900;28;19997;-62
2022/11/29 11:06:55;;;;;;;;;;;9.20;99.90;;;;;;4967304;28;20421;-62
2022/11/29 11:09:34;;;;;;;;;;;9.40;99.90;;;;;;4967206;28;19914;-62
2022/11/29 11:12:04;;;;;;;;;;;9.50;99.90;;;;;;4964549;28;20366;-62
2022/11/29 11:14:38;;;;;;;;;;;9.50;99.90;;;;;;4966542;28;19910;-62
2022/11/29 11:17:13;;;;;;;;;;;9.50;99.90;;;;;;4960650;28;19914;-62
2022/11/29 11:19:38;;;;;;;;;;;9.50;99.90;;;;;;4967851;28;19914;-62
2022/11/29 11:22:04;;;;;;;;;;;9.50;99.90;;;;;;4968444;28;19921;-63
2022/11/29 11:24:35;;;;;;;;;;;9.50;99.90;;;;;;4967496;28;19910;-62
2022/11/29 11:27:00;;;;;;;;;;;9.50;99.90;;;;;;4965930;28;20257;-63
2022/11/29 11:29:40;;;;;;;;;;;9.60;99.90;;;;;;4964465;28;19914;-62
2022/11/29 11:32:18;;;;;;;;;;;9.60;99.90;;;;;;4966486;28;19914;-62
2022/11/29 11:34:51;;;;;;;;;;;9.30;99.90;;;;;;4963700;28;19914;-62
2022/11/29 11:37:18;;;;;;;;;;;9.20;99.90;;;;;;4962345;28;19966;-63
2022/11/29 11:39:45;;;;;;;;;;;9.30;99.90;;;;;;4959449;28;19918;-62
2022/11/29 11:42:37;;;;;;;;;;;9.40;99.90;;;;;;4967235;28;19957;-63
2022/11/29 11:45:20;;;;;;;;;;;9.40;99.90;;;;;;4964398;28;19929;-63
2022/11/29 11:47:50;;;;;;;;;;;9.20;99.90;;;;;;4962608;28;19922;-63
2022/11/29 11:50:27;;;;;;;;;;;9.20;99.90;;;;;;4967026;28;19938;-63
2022/11/29 11:52:54;;;;;;;;;;;9.40;99.90;;;;;;4962832;28;19922;-63
2022/11/29 11:55:19;;;;;;;;;;;9.10;99.90;;;;;;4966796;28;19969;-63
2022/11/29 11:57:45;;;;;;;;;;;9.10;99.90;;;;;;4952982;28;19925;-63
2022/11/29 12:00:31;;;;;;;;;;;9.10;99.90;;;;;;4963800;28;19914;-63
2022/11/29 12:02:57;;;;;;;;;;;9.00;99.90;;;;;;4962674;28;20396;-63
2022/11/29 12:05:23;;;;;;;;;;;9.00;99.90;;;;;;4958016;28;19914;-63
2022/11/29 12:07:50;;;;;;;;;;;8.90;99.90;;;;;;4963359;28;20563;-63
2022/11/29 12:10:19;;;;;;;;;;;9.00;99.90;;;;;;4967653;28;20532;-63
2022/11/29 12:12:45;;;;;;;;;;;9.00;99.90;;;;;;4974001;28;19920;-63
2022/11/29 12:15:15;;;;;;;;;;;9.20;99.90;;;;;;4965633;28;19918;-63
2022/11/29 12:17:40;;;;;;;;;;;9.20;99.90;;;;;;4963435;28;20008;-64
2022/11/29 12:20:06;;;;;;;;;;;9.20;99.90;;;;;;4971988;28;20017;-63
2022/11/29 12:22:36;;;;;;;;;;;9.30;99.90;;;;;;4973810;28;20000;-64
2022/11/29 12:25:03;;;;;;;;;;;9.30;99.90;;;;;;4966323;28;20322;-64
2022/11/29 12:27:29;;;;;;;;;;;9.50;99.90;;;;;;4967039;28;19918;-66
2022/11/29 12:29:55;;;;;;;;;;;9.40;99.90;;;;;;4963311;28;19961;-64
2022/11/29 12:32:27;;;;;;;;;;;9.40;99.90;;;;;;4961279;28;20039;-63
2022/11/29 12:34:59;;;;;;;;;;;9.30;99.90;;;;;;4957372;28;20009;-63
2022/11/29 12:37:34;;;;;;;;;;;9.40;99.90;;;;;;4961686;28;20024;-63
2022/11/29 12:40:03;;;;;;;;;;;9.50;99.90;;;;;;4965461;28;19914;-63
2022/11/29 12:42:36;;;;;;;;;;;9.60;99.90;;;;;;4963878;28;19918;-64
2022/11/29 12:45:14;;;;;;;;;;;9.60;99.90;;;;;;4964203;28;20370;-64
2022/11/29 12:47:49;;;;;;;;;;;9.40;99.90;;;;;;4979603;28;19922;-63
2022/11/29 12:50:38;;;;;;;;;;;9.30;99.90;;;;;;4964704;28;19921;-63
2022/11/29 12:53:12;;;;;;;;;;;9.20;99.90;;;;;;4960646;28;19946;-63
2022/11/29 12:55:38;;;;;;;;;;;9.30;99.90;;;;;;4963332;28;19988;-64
2022/11/29 12:58:09;;;;;;;;;;;9.20;99.90;;;;;;4965774;28;19938;-63
2022/11/29 13:00:41;;;;;;;;;;;9.20;99.90;;;;;;4961888;28;19934;-64
2022/11/29 13:03:25;;;;;;;;;;;9.10;99.90;;;;;;4958171;28;20274;-63
2022/11/29 13:06:16;;;;;;;;;;;9.00;99.90;;;;;;4961782;28;19925;-63
2022/11/29 13:08:50;;;;;;;;;;;9.10;99.90;;;;;;4968815;28;19918;-64
2022/11/29 13:11:20;;;;;;;;;;;9.20;99.90;;;;;;4960573;28;20010;-63
2022/11/29 13:13:49;;;;;;;;;;;9.20;99.90;;;;;;4966316;28;19973;-63
2022/11/29 13:16:28;;;;;;;;;;;9.10;99.90;;;;;;4958961;28;19925;-63
2022/11/29 13:19:12;;;;;;;;;;;8.90;99.90;;;;;;4962280;28;19922;-63
2022/11/29 13:21:56;;;;;;;;;;;8.90;99.90;;;;;;4977926;28;20016;-64
2022/11/29 13:24:32;;;;;;;;;;;9.00;99.90;;;;;;4966702;28;19929;-63
2022/11/29 13:26:59;;;;;;;;;;;9.00;99.90;;;;;;4955894;28;19923;-64
2022/11/29 13:29:25;;;;;;;;;;;9.00;99.90;;;;;;4959854;28;19914;-64
2022/11/29 13:31:51;;;;;;;;;;;8.90;99.90;;;;;;4966102;28;20316;-63
2022/11/29 13:34:20;;;;;;;;;;;8.90;99.90;;;;;;4964473;28;20418;-63
2022/11/29 13:36:48;;;;;;;;;;;9.00;99.90;;;;;;4970459;28;19921;-63
2022/11/29 13:39:14;;;;;;;;;;;8.90;99.90;;;;;;4961555;28;19953;-63
2022/11/29 13:41:44;;;;;;;;;;;8.80;99.90;;;;;;4964168;28;19949;-63
2022/11/29 13:44:27;;;;;;;;;;;8.80;99.90;;;;;;4962600;28;19968;-63
2022/11/29 13:47:13;;;;;;;;;;;8.80;99.90;;;;;;4966208;28;19917;-63
2022/11/29 13:49:54;;;;;;;;;;;8.70;99.90;;;;;;4960087;28;20523;-63
2022/11/29 13:52:25;;;;;;;;;;;8.80;99.90;;;;;;4957433;28;20426;-62
2022/11/29 13:55:10;;;;;;;;;;;8.80;99.90;;;;;;4963781;28;19918;-62
2022/11/29 13:57:49;;;;;;;;;;;8.70;99.90;;;;;;4962062;28;19921;-63
2022/11/29 14:00:26;;;;;;;;;;;8.80;99.90;;;;;;4956253;28;20365;-63
2022/11/29 14:02:52;;;;;;;;;;;8.80;99.90;;;;;;4956541;28;19914;-63
2022/11/29 14:05:25;;;;;;;;;;;8.70;99.90;;;;;;4952396;28;20351;-63
2022/11/29 14:08:09;;;;;;;;;;;8.70;99.90;;;;;;4964083;28;19985;-62
2022/11/29 14:10:36;;;;;;;;;;;8.70;99.90;;;;;;4960871;28;19914;-63
2022/11/29 14:13:03;;;;;;;;;;;8.90;99.90;;;;;;4965882;28;19914;-63
2022/11/29 14:15:30;;;;;;;;;;;9.10;99.90;;;;;;4964339;28;19940;-63
2022/11/29 14:17:57;;;;;;;;;;;8.90;99.90;;;;;;4967306;28;20388;-63
2022/11/29 14:20:23;;;;;;;;;;;8.90;99.90;;;;;;4960047;28;20366;-63
2022/11/29 14:23:04;;;;;;;;;;;8.80;99.90;;;;;;4966821;28;19914;-62
2022/11/29 14:25:30;;;;;;;;;;;8.80;99.90;;;;;;4962305;28;19946;-62
2022/11/29 14:27:56;;;;;;;;;;;8.80;99.90;;;;;;4964616;28;19997;-62
2022/11/29 14:30:48;;;;;;;;;;;8.70;99.90;;;;;;4966623;28;19914;-63
2022/11/29 14:33:14;;;;;;;;;;;8.70;99.90;;;;;;4963025;28;19965;-63
2022/11/29 14:35:45;;;;;;;;;;;8.70;99.90;;;;;;4958650;28;19923;-63
2022/11/29 14:38:25;;;;;;;;;;;8.90;99.90;;;;;;4963362;28;19926;-62
2022/11/29 14:41:00;;;;;;;;;;;8.70;99.90;;;;;;4967010;28;20349;-63
2022/11/29 14:43:33;;;;;;;;;;;8.90;99.90;;;;;;4962750;28;20286;-63
2022/11/29 14:46:13;;;;;;;;;;;8.80;99.90;;;;;;4964582;28;19913;-64
2022/11/29 14:48:43;;;;;;;;;;;8.90;99.90;;;;;;4970807;28;20326;-63
2022/11/29 14:51:16;;;;;;;;;;;8.90;99.90;;;;;;4973745;28;19914;-63
2022/11/29 14:53:43;;;;;;;;;;;8.70;99.90;;;;;;4961097;28;19937;-63
2022/11/29 14:56:27;;;;;;;;;;;8.70;99.90;;;;;;4961660;28;19914;-63
2022/11/29 14:59:11;;;;;;;;;;;8.70;99.90;;;;;;4958868;28;19985;-63
2022/11/29 15:01:42;;;;;;;;;;;8.60;99.90;;;;;;4962791;28;19993;-63